createdAt,value
2022-09-11T00:02:26.205Z,100230.03
2022-09-11T00:05:12.626Z,100240.03
2022-09-11T00:07:59.560Z,100239.97
2022-09-11T00:10:48.610Z,100236.75
2022-09-11T00:13:29.100Z,100222.69
2022-09-11T00:16:19.609Z,100226.63
2022-09-11T00:19:08.587Z,100230.59
2022-09-11T00:21:57.592Z,100235.00
2022-09-11T00:24:37.949Z,100230.59
2022-09-11T00:27:24.566Z,100235.78
2022-09-11T00:30:05.289Z,100243.78
2022-09-11T00:32:51.594Z,100248.19
2022-09-11T00:35:31.923Z,100242.16
2022-09-11T00:38:18.588Z,100242.56
2022-09-11T00:41:00.926Z,100241.38
2022-09-11T00:44:25.535Z,100243.75
2022-09-11T00:47:16.547Z,100240.56
2022-09-11T00:50:00.633Z,100238.97
2022-09-11T00:52:56.568Z,100239.34
2022-09-11T00:55:40.646Z,100237.34
2022-09-11T00:58:31.562Z,100238.56
2022-09-11T01:01:14.637Z,100229.34
2022-09-11T01:04:02.564Z,100236.97
2022-09-11T01:06:42.680Z,100229.72
2022-09-11T01:09:32.551Z,100234.16
2022-09-11T01:12:19.626Z,100244.09
2022-09-11T01:15:18.545Z,100230.44
2022-09-11T01:18:24.651Z,100218.88
2022-09-11T01:21:34.487Z,100209.63
2022-09-11T01:24:43.533Z,100212.03
2022-09-11T01:27:54.511Z,100218.06
2022-09-11T01:30:51.549Z,100212.84
2022-09-11T01:33:56.620Z,100219.59
2022-09-11T01:36:47.497Z,100225.22
2022-09-11T01:39:33.754Z,100230.41
2022-09-11T01:42:27.500Z,100237.63
2022-09-11T01:45:17.449Z,100219.22
2022-09-11T01:48:06.492Z,100211.63
2022-09-11T01:50:58.493Z,100212.81
2022-09-11T01:53:45.877Z,100208.47
2022-09-11T01:56:51.468Z,100214.47
2022-09-11T01:59:37.566Z,100216.13
2022-09-11T02:02:27.469Z,100208.13
2022-09-11T02:05:20.560Z,100199.75
2022-09-11T02:08:36.502Z,100187.72
2022-09-11T02:11:24.445Z,100191.69
2022-09-11T02:14:30.585Z,100196.50
2022-09-11T02:17:47.476Z,100198.50
2022-09-11T02:20:34.404Z,100192.91
2022-09-11T02:23:24.469Z,100195.72
2022-09-11T02:26:04.694Z,100192.53
2022-09-11T02:28:51.458Z,100195.34
2022-09-11T02:31:32.561Z,100202.53
2022-09-11T02:34:21.410Z,100201.75
2022-09-11T02:37:34.058Z,100185.41
2022-09-11T02:40:38.435Z,100191.00
2022-09-11T02:43:46.442Z,100184.97
2022-09-11T02:46:50.004Z,100188.13
2022-09-11T02:50:10.423Z,100189.72
2022-09-11T02:53:09.439Z,100181.31
2022-09-11T02:56:12.419Z,100174.13
2022-09-11T02:58:57.399Z,100184.94
2022-09-11T03:02:06.445Z,100180.09
2022-09-11T03:04:53.403Z,100192.06
2022-09-11T03:25:54.206Z,100216.50
2022-09-11T03:28:34.628Z,100217.03
2022-09-11T03:31:24.198Z,100213.91
2022-09-11T03:34:13.187Z,100216.75
2022-09-11T03:36:53.305Z,100216.78
2022-09-11T03:39:40.218Z,100220.47
2022-09-11T03:42:20.318Z,100219.25
2022-09-11T03:45:07.177Z,100216.47
2022-09-11T03:47:55.209Z,100221.31
2022-09-11T03:50:35.661Z,100229.28
2022-09-11T03:53:22.154Z,100220.84
2022-09-11T03:56:11.149Z,100219.66
2022-09-11T03:58:54.286Z,100229.25
2022-09-11T04:01:42.263Z,100220.88
2022-09-11T04:04:29.171Z,100212.47
2022-09-11T04:07:09.637Z,100221.25
2022-09-11T04:09:56.159Z,100214.88
2022-09-11T04:12:36.543Z,100208.03
2022-09-11T04:15:24.186Z,100212.00
2022-09-11T04:18:15.127Z,100216.06
2022-09-11T04:21:02.149Z,100216.44
2022-09-11T04:23:56.129Z,100210.50
2022-09-11T04:26:43.186Z,100211.31
2022-09-11T04:29:40.151Z,100214.56
2022-09-11T04:32:20.492Z,100211.41
2022-09-11T04:35:08.127Z,100213.88
2022-09-11T04:38:03.129Z,100217.91
2022-09-11T04:40:52.124Z,100217.63
2022-09-11T04:43:34.307Z,100218.19
2022-09-11T04:46:29.125Z,100228.13
2022-09-11T04:49:12.704Z,100227.25
2022-09-11T04:52:00.125Z,100222.78
2022-09-11T04:54:41.535Z,100229.09
2022-09-11T04:57:30.115Z,100229.47
2022-09-11T05:00:11.286Z,100228.00
2022-09-11T05:02:58.126Z,100225.97
2022-09-11T05:05:39.118Z,100232.34
2022-09-11T05:08:26.099Z,100230.25
2022-09-11T05:11:18.086Z,100223.59
2022-09-11T05:14:07.078Z,100213.22
2022-09-11T05:16:55.101Z,100209.28
2022-09-11T05:19:37.177Z,100217.97
2022-09-11T05:22:24.079Z,100207.03
2022-09-11T05:25:19.105Z,100206.84
2022-09-11T05:27:59.458Z,100206.72
2022-09-11T05:30:46.085Z,100202.56
2022-09-11T05:33:35.082Z,100203.16
2022-09-11T05:36:16.194Z,100198.97
2022-09-11T05:39:03.067Z,100200.69
2022-09-11T05:41:44.183Z,100193.41
2022-09-11T05:44:31.106Z,100203.88
2022-09-11T05:47:14.332Z,100200.31
2022-09-11T05:50:04.084Z,100196.66
2022-09-11T05:52:44.166Z,100198.31
2022-09-11T05:55:31.033Z,100199.25
2022-09-11T05:58:12.165Z,100202.25
2022-09-11T06:00:59.096Z,100201.72
2022-09-11T06:03:42.285Z,100197.38
2022-09-11T06:06:31.061Z,100196.19
2022-09-11T06:09:13.193Z,100194.19
2022-09-11T06:12:00.025Z,100197.03
2022-09-11T06:14:43.257Z,100186.50
2022-09-11T06:17:31.020Z,100199.84
2022-09-11T06:20:13.144Z,100197.03
2022-09-11T06:23:08.592Z,100195.47
2022-09-11T06:25:56.158Z,100192.75
2022-09-11T06:28:38.032Z,100190.78
2022-09-11T06:31:21.123Z,100192.53
2022-09-11T06:34:09.021Z,100201.75
2022-09-11T06:36:56.031Z,100199.78
2022-09-11T06:39:37.161Z,100206.03
2022-09-11T06:42:30.012Z,100216.19
2022-09-11T06:45:10.234Z,100208.88
2022-09-11T06:47:56.973Z,100201.47
2022-09-11T06:50:40.909Z,100211.91
2022-09-11T06:53:27.991Z,100215.06
2022-09-11T06:56:14.144Z,100212.03
2022-09-11T06:59:01.036Z,100219.50
2022-09-11T07:01:48.083Z,100214.53
2022-09-11T07:04:29.327Z,100208.25
2022-09-11T07:07:15.974Z,100216.03
2022-09-11T07:10:03.964Z,100213.66
2022-09-11T07:12:50.978Z,100218.81
2022-09-11T07:15:38.977Z,100230.53
2022-09-11T07:18:19.109Z,100225.19
2022-09-11T07:21:06.989Z,100233.88
2022-09-11T07:24:05.978Z,100238.56
2022-09-11T07:26:48.389Z,100246.56
2022-09-11T07:29:42.944Z,100235.34
2022-09-11T07:32:23.337Z,100239.03
2022-09-11T07:35:09.986Z,100236.19
2022-09-11T07:37:57.038Z,100244.25
2022-09-11T07:40:39.970Z,100240.31
2022-09-11T07:43:27.949Z,100240.97
2022-09-11T07:46:14.959Z,100244.84
2022-09-11T07:48:55.948Z,100248.59
2022-09-11T07:51:43.943Z,100247.97
2022-09-11T07:54:37.917Z,100251.84
2022-09-11T07:57:21.990Z,100251.72
2022-09-11T08:00:08.921Z,100255.63
2022-09-11T08:02:56.856Z,100256.91
2022-09-11T08:05:47.943Z,100242.91
2022-09-11T08:08:29.597Z,100252.78
2022-09-11T08:11:18.897Z,100247.69
2022-09-11T08:14:07.926Z,100249.09
2022-09-11T08:16:48.530Z,100240.72
2022-09-11T08:19:36.907Z,100244.19
2022-09-11T08:22:18.306Z,100242.78
2022-09-11T08:25:04.916Z,100245.47
2022-09-11T08:27:53.187Z,100250.72
2022-09-11T08:30:33.885Z,100248.97
2022-09-11T08:33:15.278Z,100249.22
2022-09-11T08:36:01.904Z,100244.59
2022-09-11T08:38:45.469Z,100236.91
2022-09-11T08:41:36.913Z,100231.03
2022-09-11T08:44:27.890Z,100224.59
2022-09-11T08:47:25.003Z,100222.66
2022-09-11T08:50:15.909Z,100223.03
2022-09-11T08:52:56.975Z,100229.25
2022-09-11T08:55:50.884Z,100212.69
2022-09-11T08:58:53.001Z,100214.06
2022-09-11T09:01:53.911Z,100215.13
2022-09-11T09:05:00.468Z,100216.03
2022-09-11T09:08:15.890Z,100216.22
2022-09-11T09:11:28.736Z,100212.91
2022-09-11T09:14:35.879Z,100202.31
2022-09-11T09:17:40.859Z,100189.34
2022-09-11T09:20:31.702Z,100193.78
2022-09-11T09:23:32.874Z,100206.13
2022-09-11T09:26:32.424Z,100198.84
2022-09-11T09:29:25.036Z,100188.69
2022-09-11T09:32:28.885Z,100191.53
2022-09-11T09:35:21.912Z,100189.59
2022-09-11T09:38:09.851Z,100205.03
2022-09-11T09:41:12.056Z,100192.75
2022-09-11T09:44:19.720Z,100187.00
2022-09-11T09:47:00.330Z,100195.25
2022-09-11T09:49:49.837Z,100203.88
2022-09-11T09:52:42.851Z,100194.03
2022-09-11T09:55:27.934Z,100186.56
2022-09-11T09:58:14.806Z,100183.19
2022-09-11T10:00:54.942Z,100190.38
2022-09-11T10:03:41.819Z,100174.38
2022-09-11T10:06:28.828Z,100175.78
2022-09-11T10:09:29.656Z,100178.81
2022-09-11T10:12:25.850Z,100180.25
2022-09-11T10:15:13.826Z,100166.06
2022-09-11T10:18:00.808Z,100168.69
2022-09-11T10:20:41.316Z,100167.56
2022-09-11T10:23:39.789Z,100165.78
2022-09-11T10:26:37.808Z,100162.88
2022-09-11T10:29:22.825Z,100163.38
2022-09-11T10:32:12.797Z,100165.22
2022-09-11T10:34:53.753Z,100151.47
2022-09-11T10:37:45.811Z,100150.13
2022-09-11T10:40:26.254Z,100150.53
2022-09-11T10:43:12.800Z,100144.97
2022-09-11T10:46:10.845Z,100151.41
2022-09-11T10:49:24.824Z,100142.97
2022-09-11T10:52:08.124Z,100146.09
2022-09-11T10:55:14.749Z,100123.69
2022-09-11T10:58:05.862Z,100140.84
2022-09-11T11:00:52.775Z,100124.13
2022-09-11T11:03:33.374Z,100133.72
2022-09-11T11:07:10.762Z,100135.06
2022-09-11T11:10:25.774Z,100123.25
2022-09-11T11:13:23.877Z,100126.25
2022-09-11T11:16:25.776Z,100132.69
2022-09-11T11:19:24.044Z,100130.09
2022-09-11T11:22:24.755Z,100133.66
2022-09-11T11:25:14.879Z,100128.94
2022-09-11T11:28:19.744Z,100126.91
2022-09-11T11:31:23.809Z,100114.13
2022-09-11T11:34:14.395Z,100127.69
2022-09-11T11:37:11.777Z,100126.72
2022-09-11T11:40:16.908Z,100127.47
2022-09-11T11:43:10.745Z,100120.78
2022-09-11T11:46:03.864Z,100122.88
2022-09-11T11:48:53.314Z,100121.94
2022-09-11T11:51:41.744Z,100121.88
2022-09-11T11:55:18.117Z,100119.28
2022-09-11T11:58:17.780Z,100113.38
2022-09-11T12:01:01.950Z,100104.53
2022-09-11T12:03:51.785Z,100102.94
2022-09-11T12:06:38.714Z,100105.81
2022-09-11T12:09:22.889Z,100096.38
2022-09-11T12:12:12.705Z,100092.31
2022-09-11T12:15:09.698Z,100095.06
2022-09-11T12:18:13.708Z,100089.38
2022-09-11T12:20:53.812Z,100085.63
2022-09-11T12:24:01.702Z,100091.63
2022-09-11T12:26:55.676Z,100089.44
2022-09-11T12:30:00.688Z,100092.13
2022-09-11T12:32:48.770Z,100080.28
2022-09-11T12:35:47.726Z,100086.22
2022-09-11T12:38:41.736Z,100080.72
2022-09-11T12:41:27.076Z,100082.69
2022-09-11T12:44:14.666Z,100073.06
2022-09-11T12:47:01.708Z,100078.56
2022-09-11T12:49:42.149Z,100082.78
2022-09-11T12:52:46.701Z,100082.47
2022-09-11T12:55:51.698Z,100078.78
2022-09-11T12:58:43.727Z,100075.13
2022-09-11T13:01:30.884Z,100067.63
2022-09-11T13:04:17.632Z,100068.88
2022-09-11T13:07:10.648Z,100065.31
2022-09-11T13:09:58.684Z,100063.19
2022-09-11T13:12:41.820Z,100062.88
2022-09-11T13:15:47.805Z,100054.72
2022-09-11T13:18:38.651Z,100049.47
2022-09-11T13:21:23.130Z,100059.03
2022-09-11T13:24:13.629Z,100055.38
2022-09-11T13:27:05.861Z,100058.81
2022-09-11T13:29:47.649Z,100056.69
2022-09-11T13:32:28.183Z,100055.88
2022-09-11T13:35:23.639Z,100055.88
2022-09-11T13:38:10.171Z,100056.00
2022-09-11T13:41:01.611Z,100045.75
2022-09-11T13:43:56.314Z,100040.06
2022-09-11T13:46:50.708Z,100047.91
2022-09-11T13:49:46.627Z,100035.06
2022-09-11T13:52:30.406Z,100034.63
2022-09-11T13:55:27.614Z,100031.91
2022-09-11T13:58:37.638Z,100029.38
2022-09-11T14:01:26.620Z,100039.84
2022-09-11T14:04:17.591Z,100039.81
2022-09-11T14:07:04.613Z,100032.31
2022-09-11T14:10:05.838Z,100033.16
2022-09-11T14:13:03.622Z,100030.88
2022-09-11T14:16:02.783Z,100037.81
2022-09-11T14:18:53.755Z,100037.06
2022-09-11T14:21:45.667Z,100022.38
2022-09-11T14:24:43.038Z,100030.56
2022-09-11T14:27:41.644Z,100023.28
2022-09-11T14:30:46.776Z,100018.78
2022-09-11T14:33:33.708Z,100026.81
2022-09-11T14:36:30.596Z,100031.25
2022-09-11T14:39:26.269Z,100025.91
2022-09-11T14:42:13.590Z,100027.25
2022-09-11T14:44:54.075Z,100028.25
2022-09-11T14:47:43.678Z,100026.09
2022-09-11T14:50:31.564Z,100026.88
2022-09-11T14:53:18.567Z,100024.72
2022-09-11T14:56:00.670Z,100014.44
2022-09-11T14:58:47.665Z,100018.16
2022-09-11T15:01:35.705Z,100014.06
2022-09-11T15:04:22.539Z,100011.97
2022-09-11T15:07:03.090Z,99996.53
2022-09-11T15:09:49.533Z,99998.78
2022-09-11T15:27:56.983Z,100003.53
2022-09-11T15:30:44.987Z,99991.78
2022-09-11T15:33:25.094Z,99993.63
2022-09-11T15:36:11.985Z,99995.84
2022-09-11T15:39:03.662Z,99995.72
2022-09-11T15:41:50.962Z,99995.63
2022-09-11T15:44:33.225Z,99996.47
2022-09-11T15:47:19.930Z,99988.59
2022-09-11T15:50:06.974Z,99984.09
2022-09-11T15:52:47.409Z,99984.53
2022-09-11T15:55:33.935Z,99992.66
2022-09-11T15:58:20.943Z,99993.94
2022-09-11T16:01:08.964Z,99990.44
2022-09-11T16:04:06.959Z,99990.28
2022-09-11T16:06:50.288Z,99995.06
2022-09-11T16:09:37.960Z,99997.69
2022-09-11T16:12:18.038Z,99998.63
2022-09-11T16:15:05.938Z,99989.78
2022-09-11T16:17:52.939Z,99997.00
2022-09-11T16:20:33.396Z,99997.25
2022-09-11T16:23:19.910Z,99998.19
2022-09-11T16:26:19.902Z,99993.94
2022-09-11T16:29:01.019Z,99994.16
2022-09-11T16:31:47.933Z,99987.28
2022-09-11T16:34:34.919Z,99993.50
2022-09-11T16:37:21.939Z,99991.63
2022-09-11T16:40:02.920Z,99995.81
2022-09-11T16:42:49.918Z,99995.59
2022-09-11T16:45:36.907Z,99996.94
2022-09-11T16:48:17.334Z,99985.78
2022-09-11T16:51:04.883Z,99991.56
2022-09-11T16:53:45.380Z,99993.59
2022-09-11T16:56:32.903Z,99997.72
2022-09-11T16:59:19.865Z,99994.91
2022-09-11T17:02:07.953Z,100000.13
2022-09-11T17:04:54.885Z,99998.94
2022-09-11T17:07:42.878Z,100005.84
2022-09-11T17:10:29.885Z,100016.00
2022-09-11T17:13:10.957Z,100026.19
2022-09-11T17:15:57.911Z,100019.09
2022-09-11T17:18:39.373Z,100024.75
2022-09-11T17:21:25.820Z,100014.09
2022-09-11T17:24:07.508Z,100018.94
2022-09-11T17:26:54.880Z,100019.44
2022-09-11T17:29:35.410Z,100020.22
2022-09-11T17:32:30.076Z,100024.19
2022-09-11T17:35:11.981Z,100030.75
2022-09-11T17:37:58.831Z,100036.88
2022-09-11T17:40:39.275Z,100034.84
2022-09-11T17:43:25.889Z,100037.81
2022-09-11T17:46:18.397Z,100041.50
2022-09-11T17:49:04.796Z,100038.31
2022-09-11T17:51:45.210Z,100039.16
2022-09-11T17:54:31.803Z,100039.13
2022-09-11T17:57:12.534Z,100032.44
2022-09-11T18:00:02.862Z,100037.66
2022-09-11T18:02:52.843Z,100041.00
2022-09-11T18:05:34.098Z,100041.00
2022-09-11T18:08:20.834Z,100042.66
2022-09-11T18:11:03.904Z,100038.59
2022-09-11T18:13:50.830Z,100045.09
2022-09-11T18:16:30.943Z,100051.91
2022-09-11T18:19:18.806Z,100054.28
2022-09-11T18:21:59.867Z,100064.00
2022-09-11T18:24:40.026Z,100056.47
2022-09-11T18:27:20.273Z,100055.69
2022-09-11T18:30:06.754Z,100051.25
2022-09-11T18:35:36.806Z,100053.06
2022-09-11T18:38:17.199Z,100054.31
2022-09-11T18:41:10.750Z,100049.22
2022-09-11T18:43:55.550Z,100055.69
2022-09-11T18:46:43.797Z,100053.34
2022-09-11T18:49:30.766Z,100051.13
2022-09-11T18:52:10.926Z,100050.28
2022-09-11T18:54:57.785Z,100045.88
2022-09-11T18:57:41.717Z,100047.13
2022-09-11T19:00:29.847Z,100041.63
2022-09-11T19:03:20.768Z,100034.47
2022-09-11T19:06:12.778Z,100032.03
2022-09-11T19:08:54.919Z,100036.56
2022-09-11T19:11:41.770Z,100031.75
2022-09-11T19:14:28.776Z,100028.53
2022-09-11T19:17:09.161Z,100038.25
2022-09-11T19:19:55.756Z,100025.06
2022-09-11T19:22:36.451Z,100035.94
2022-09-11T19:25:22.754Z,100038.03
2022-09-11T19:28:18.745Z,100028.44
2022-09-11T19:31:00.741Z,100031.25
2022-09-11T19:33:49.737Z,100037.78
2022-09-11T19:36:32.864Z,100035.38
2022-09-11T19:39:19.710Z,100041.81
2022-09-11T19:42:00.385Z,100031.84
2022-09-11T19:44:47.723Z,100029.47
2022-09-11T19:47:34.723Z,100033.97
2022-09-11T19:50:17.482Z,100030.81
2022-09-11T19:53:04.680Z,100033.63
2022-09-11T19:55:51.713Z,100029.22
2022-09-11T19:58:38.706Z,100030.03
2022-09-11T20:01:28.678Z,100033.31
2022-09-11T20:04:17.721Z,100037.75
2022-09-11T20:06:57.820Z,100033.75
2022-09-11T20:09:45.674Z,100041.38
2022-09-11T20:12:32.709Z,100033.75
2022-09-11T20:15:13.105Z,100036.53
2022-09-11T20:18:00.424Z,100044.97
2022-09-11T20:20:49.675Z,100046.59
2022-09-11T20:23:29.880Z,100056.28
2022-09-11T20:26:31.661Z,100052.66
2022-09-11T20:29:21.666Z,100055.47
2022-09-11T20:32:08.645Z,100057.50
2022-09-11T20:34:55.656Z,100059.88
2022-09-11T20:37:35.826Z,100053.47
2022-09-11T20:40:22.689Z,100048.66
2022-09-11T20:43:09.665Z,100042.25
2022-09-11T20:45:57.654Z,100041.84
2022-09-11T20:48:37.811Z,100047.47
2022-09-11T20:51:24.642Z,100051.50
2022-09-11T20:54:11.618Z,100047.88
2022-09-11T20:56:52.026Z,100045.06
2022-09-11T20:59:38.627Z,100054.28
2022-09-11T21:02:19.163Z,100050.69
2022-09-11T21:05:05.624Z,100048.69
2022-09-11T21:07:46.032Z,100042.69
2022-09-11T21:10:25.605Z,100054.31
2022-09-11T21:13:05.784Z,100054.69
2022-09-11T21:15:53.656Z,100055.09
2022-09-11T21:18:40.605Z,100047.88
2022-09-11T21:21:28.615Z,100053.50
2022-09-11T21:24:17.592Z,100048.69
2022-09-11T21:27:04.638Z,100046.31
2022-09-11T21:29:44.738Z,100042.69
2022-09-11T21:32:31.567Z,100056.31
2022-09-11T21:35:19.624Z,100041.88
2022-09-11T21:37:59.990Z,100042.31
2022-09-11T21:40:46.606Z,100046.69
2022-09-11T21:43:34.645Z,100037.88
2022-09-11T21:46:23.657Z,100039.88
2022-09-11T21:49:10.616Z,100040.28
2022-09-11T21:51:50.740Z,100040.69
2022-09-11T21:54:37.559Z,100039.47
2022-09-11T21:57:24.571Z,100035.88
2022-09-11T22:00:11.855Z,100037.88
2022-09-11T22:02:58.556Z,100041.88
2022-09-11T22:05:43.364Z,100051.09
2022-09-11T22:08:32.584Z,100045.09
2022-09-11T22:11:14.297Z,100037.06
2022-09-11T22:14:00.556Z,100040.66
2022-09-11T22:16:40.962Z,100039.47
2022-09-11T22:19:27.587Z,100035.47
2022-09-11T22:22:15.019Z,100026.25
2022-09-11T22:24:54.541Z,100026.25
2022-09-11T22:27:50.565Z,100023.47
2022-09-11T22:30:31.350Z,100016.25
2022-09-11T22:33:18.532Z,100021.47
2022-09-11T22:36:05.546Z,100022.25
2022-09-11T22:38:52.580Z,100017.47
2022-09-11T22:41:39.541Z,100007.06
2022-09-11T22:44:19.990Z,100003.88
2022-09-11T22:47:06.506Z,100006.66
2022-09-11T22:49:53.502Z,100003.47
2022-09-11T22:52:41.289Z,99999.06
2022-09-11T22:55:21.557Z,100003.47
2022-09-11T22:58:08.522Z,99998.25
2022-09-11T23:00:56.563Z,99993.84
2022-09-11T23:03:43.514Z,99997.88
2022-09-11T23:06:42.370Z,100003.88
2022-09-11T23:09:29.489Z,100008.66
2022-09-11T23:12:10.676Z,100013.88
2022-09-11T23:14:57.471Z,100006.28
2022-09-11T23:17:44.469Z,100003.06
2022-09-11T23:20:24.917Z,100003.88
2022-09-11T23:23:11.517Z,99995.84
2022-09-11T23:25:52.054Z,100016.28
2022-09-11T23:28:38.489Z,100020.25
2022-09-11T23:31:35.532Z,100006.25
2022-09-11T23:34:15.662Z,100015.06
2022-09-11T23:37:02.474Z,100004.25
2022-09-11T23:39:42.688Z,100019.06
2022-09-11T23:42:30.445Z,100021.47
2022-09-11T23:45:12.758Z,100022.25
2022-09-11T23:47:59.477Z,100016.66
2022-09-11T23:50:39.683Z,100021.84
2022-09-11T23:53:26.455Z,100019.47
2022-09-11T23:56:06.763Z,100025.06
2022-09-11T23:58:53.436Z,100015.84
